createdAt,value
2022-10-10T00:02:23.418Z,7.45
2022-10-10T00:07:25.684Z,7.40
2022-10-10T00:12:27.952Z,8.43
2022-10-10T00:17:30.256Z,8.63
2022-10-10T00:22:32.833Z,8.82
2022-10-10T00:27:35.137Z,9.43
2022-10-10T00:32:37.518Z,10.27
2022-10-10T00:37:39.750Z,10.25
2022-10-10T00:42:42.003Z,10.00
2022-10-10T00:47:44.245Z,10.05
2022-10-10T00:52:46.727Z,9.05
2022-10-10T00:57:49.791Z,10.23
2022-10-10T01:02:52.537Z,10.70
2022-10-10T01:07:55.926Z,9.63
2022-10-10T01:13:16.397Z,9.65
2022-10-10T01:18:33.493Z,9.65
2022-10-10T01:24:00.423Z,10.25
2022-10-10T01:29:10.569Z,9.30
2022-10-10T01:34:28.323Z,8.75
2022-10-10T01:39:41.775Z,8.43
2022-10-10T01:44:45.813Z,11.00
2022-10-10T01:49:50.036Z,9.82
2022-10-10T01:55:15.770Z,8.48
2022-10-10T02:00:18.751Z,8.07
2022-10-10T02:05:43.959Z,9.07
2022-10-10T02:10:49.380Z,10.30
2022-10-10T02:15:54.164Z,8.40
2022-10-10T02:20:56.533Z,8.57
2022-10-10T02:25:59.182Z,7.85
2022-10-10T02:31:06.292Z,7.27
2022-10-10T02:36:08.615Z,7.95
2022-10-10T02:41:14.107Z,7.35
2022-10-10T02:46:16.839Z,7.85
2022-10-10T02:51:19.562Z,8.03
2022-10-10T02:56:21.791Z,7.88
2022-10-10T03:01:24.287Z,8.38
2022-10-10T03:06:26.591Z,7.40
2022-10-10T03:11:28.761Z,7.95
2022-10-10T03:16:31.291Z,7.93
2022-10-10T03:21:33.651Z,8.27
2022-10-10T03:26:36.028Z,8.50
2022-10-10T03:31:38.606Z,8.75
2022-10-10T03:36:41.334Z,9.05
2022-10-10T03:41:43.614Z,8.75
2022-10-10T03:46:45.891Z,8.43
2022-10-10T03:51:48.445Z,7.18
2022-10-10T03:56:50.713Z,7.60
2022-10-10T04:01:53.964Z,7.20
2022-10-10T04:06:56.179Z,7.78
2022-10-10T04:11:59.652Z,7.70
2022-10-10T04:17:04.201Z,7.22
2022-10-10T04:22:10.787Z,7.55
2022-10-10T04:27:14.112Z,6.65
2022-10-10T04:32:16.400Z,6.93
2022-10-10T04:37:18.665Z,6.85
2022-10-10T04:42:20.930Z,7.68
2022-10-10T04:47:23.337Z,7.57
2022-10-10T04:52:25.616Z,8.18
2022-10-10T04:57:27.823Z,8.73
2022-10-10T05:02:30.385Z,9.38
2022-10-10T05:07:32.632Z,10.30
2022-10-10T05:12:34.949Z,10.10
2022-10-10T05:17:37.211Z,9.68
2022-10-10T05:22:39.553Z,10.18
2022-10-10T05:27:42.515Z,10.25
2022-10-10T05:32:44.893Z,9.93
2022-10-10T05:37:47.070Z,10.07
2022-10-10T05:42:49.612Z,9.70
2022-10-10T05:47:52.045Z,9.63
2022-10-10T05:52:54.513Z,9.77
2022-10-10T05:57:56.943Z,6.63
2022-10-10T06:02:59.421Z,8.50
2022-10-10T06:08:10.752Z,8.93
2022-10-10T06:13:20.330Z,9.50
2022-10-10T06:18:25.728Z,8.98
2022-10-10T06:23:29.126Z,9.75
2022-10-10T06:28:31.497Z,9.07
2022-10-10T06:33:34.684Z,8.00
2022-10-10T06:38:41.515Z,8.20
2022-10-10T06:43:43.820Z,7.93
2022-10-10T06:48:47.206Z,7.88
2022-10-10T06:53:49.775Z,7.90
2022-10-10T06:58:52.139Z,7.17
2022-10-10T07:03:54.375Z,7.32
2022-10-10T07:08:58.215Z,7.43
2022-10-10T07:14:00.434Z,7.10
2022-10-10T07:19:02.808Z,7.47
2022-10-10T07:24:05.211Z,6.33
2022-10-10T07:29:07.570Z,6.93
2022-10-10T07:34:09.855Z,7.23
2022-10-10T07:39:16.924Z,6.97
2022-10-10T07:44:19.895Z,6.50
2022-10-10T07:49:22.328Z,7.10
2022-10-10T07:54:24.546Z,6.63
2022-10-10T07:59:26.833Z,7.60
2022-10-10T08:04:29.129Z,7.05
2022-10-10T08:09:31.685Z,8.20
2022-10-10T08:14:33.838Z,7.60
2022-10-10T08:19:36.216Z,7.90
2022-10-10T08:24:38.448Z,8.15
2022-10-10T08:29:40.708Z,7.40
2022-10-10T08:34:43.593Z,6.80
2022-10-10T08:39:45.808Z,7.57
2022-10-10T08:44:54.267Z,7.00
2022-10-10T08:50:07.350Z,7.07
2022-10-10T08:55:21.853Z,6.95
2022-10-10T09:00:26.596Z,6.50
2022-10-10T09:05:35.449Z,6.50
2022-10-10T09:10:56.069Z,7.13
2022-10-10T09:16:01.524Z,6.20
2022-10-10T09:21:23.250Z,5.88
2022-10-10T09:26:28.562Z,5.97
2022-10-10T09:31:39.191Z,5.70
2022-10-10T09:36:41.827Z,6.13
2022-10-10T09:41:59.035Z,5.90
2022-10-10T09:47:01.440Z,5.50
2022-10-10T09:52:18.809Z,5.55
2022-10-10T09:57:23.237Z,5.65
2022-10-10T10:02:27.726Z,5.82
2022-10-10T10:07:32.372Z,5.80
2022-10-10T10:12:40.147Z,5.70
2022-10-10T10:17:43.071Z,5.78
2022-10-10T10:22:47.535Z,5.60
2022-10-10T10:27:50.061Z,5.80
2022-10-10T10:33:05.037Z,5.57
2022-10-10T10:38:22.516Z,6.00
2022-10-10T10:43:35.378Z,5.20
2022-10-10T10:48:58.579Z,5.73
2022-10-10T10:54:14.660Z,6.40
2022-10-10T11:00:21.848Z,6.10
2022-10-10T11:05:18.961Z,5.70
2022-10-10T11:10:27.316Z,5.28
2022-10-10T11:16:06.107Z,5.70
2022-10-10T11:21:06.704Z,5.65
2022-10-10T11:26:16.938Z,5.13
2022-10-10T11:31:30.585Z,5.53
2022-10-10T11:41:41.455Z,5.45
2022-10-10T11:46:49.292Z,5.35
2022-10-10T11:52:09.526Z,5.15
2022-10-10T11:57:21.973Z,4.70
2022-10-10T12:02:32.440Z,6.15
2022-10-10T12:07:47.651Z,6.38
2022-10-10T12:12:54.050Z,5.68
2022-10-10T12:17:57.074Z,5.40
2022-10-10T12:23:29.590Z,6.55
2022-10-10T12:28:37.966Z,6.65
2022-10-10T12:33:42.403Z,6.55
2022-10-10T12:44:23.273Z,5.18
2022-10-10T12:49:26.454Z,6.15
2022-10-10T12:54:38.371Z,6.15
2022-10-10T12:59:41.891Z,5.80
2022-10-10T13:04:45.723Z,5.97
2022-10-10T13:09:50.141Z,7.32
2022-10-10T13:14:52.696Z,5.90
2022-10-10T13:19:57.273Z,6.87
2022-10-10T13:25:00.755Z,6.55
2022-10-10T13:30:05.512Z,6.80
2022-10-10T13:35:14.715Z,7.00
2022-10-10T13:40:18.359Z,7.70
2022-10-10T13:45:30.275Z,6.07
2022-10-10T13:50:43.972Z,7.85
2022-10-10T13:55:46.280Z,6.50
2022-10-10T14:00:58.070Z,6.03
2022-10-10T14:06:00.589Z,6.68
2022-10-10T14:11:08.490Z,10.77
2022-10-10T14:16:16.962Z,9.77
2022-10-10T14:21:20.189Z,10.48
2022-10-10T14:26:22.554Z,7.35
2022-10-10T14:31:28.894Z,7.40
2022-10-10T14:36:31.317Z,8.50
2022-10-10T14:41:34.249Z,8.02
2022-10-10T14:46:37.182Z,7.50
2022-10-10T14:51:39.524Z,8.18
2022-10-10T14:57:08.337Z,10.50
2022-10-10T15:02:06.166Z,10.77
2022-10-10T15:07:13.788Z,10.07
2022-10-10T15:12:16.493Z,11.38
2022-10-10T15:17:19.029Z,13.20
2022-10-10T15:22:21.549Z,15.00
2022-10-10T15:27:24.331Z,14.43
2022-10-10T15:32:27.019Z,12.00
2022-10-10T15:37:29.537Z,11.93
2022-10-10T15:42:35.410Z,14.77
2022-10-10T15:47:46.270Z,12.02
2022-10-10T15:52:49.334Z,12.55
2022-10-10T15:57:51.548Z,11.93
2022-10-10T16:02:55.432Z,13.07
2022-10-10T16:07:57.661Z,13.65
2022-10-10T16:12:59.970Z,14.93
2022-10-10T16:18:05.154Z,15.20
2022-10-10T16:23:08.423Z,16.37
2022-10-10T16:28:10.859Z,16.27
2022-10-10T16:33:13.234Z,17.13
2022-10-10T16:38:16.116Z,14.88
2022-10-10T16:43:18.692Z,14.35
2022-10-10T16:48:22.588Z,13.00
2022-10-10T16:53:24.931Z,13.27
2022-10-10T16:58:27.945Z,13.15
2022-10-10T17:03:30.501Z,15.45
2022-10-10T17:08:33.289Z,15.30
2022-10-10T17:13:37.498Z,12.93
2022-10-10T17:18:44.678Z,14.48
2022-10-10T17:23:47.730Z,13.32
2022-10-10T17:28:53.437Z,12.85
2022-10-10T17:33:57.413Z,12.90
2022-10-10T17:39:02.574Z,13.70
2022-10-10T17:44:05.974Z,14.68
2022-10-10T17:49:14.430Z,15.48
2022-10-10T17:54:19.431Z,16.88
2022-10-10T17:59:21.748Z,18.90
2022-10-10T18:04:24.063Z,28.75
2022-10-10T18:09:26.368Z,30.35
2022-10-10T18:14:28.859Z,31.45
2022-10-10T18:19:31.629Z,28.08
2022-10-10T18:24:33.965Z,26.23
2022-10-10T18:29:36.523Z,27.65
2022-10-10T18:34:43.842Z,28.08
2022-10-10T18:40:24.383Z,30.73
2022-10-10T18:45:31.911Z,28.23
2022-10-10T18:57:10.381Z,22.77
2022-10-10T19:02:13.598Z,20.00
2022-10-10T19:07:16.162Z,23.77
2022-10-10T19:12:28.807Z,26.47
2022-10-10T19:18:03.160Z,34.03
2022-10-10T19:28:17.883Z,25.63
2022-10-10T19:33:20.854Z,25.48
2022-10-10T19:38:23.516Z,28.00
2022-10-10T19:43:26.132Z,27.05
2022-10-10T19:48:29.841Z,23.10
2022-10-10T19:53:33.699Z,22.63
2022-10-10T19:58:37.195Z,19.50
2022-10-10T20:03:43.549Z,20.30
2022-10-10T20:08:46.318Z,21.35
2022-10-10T20:13:51.902Z,22.33
2022-10-10T20:18:56.906Z,29.15
2022-10-10T20:24:06.190Z,27.00
2022-10-10T20:29:08.807Z,22.45
2022-10-10T20:34:11.060Z,20.38
2022-10-10T20:39:13.998Z,20.27
2022-10-10T20:44:16.277Z,20.10
2022-10-10T20:49:21.241Z,24.08
2022-10-10T20:54:24.139Z,27.63
2022-10-10T20:59:26.345Z,31.10
2022-10-10T21:04:29.534Z,38.70
2022-10-10T21:09:32.906Z,49.92
2022-10-10T21:14:37.477Z,60.50
2022-10-10T21:19:40.159Z,57.95
2022-10-10T21:24:43.105Z,52.63
2022-10-10T21:29:45.295Z,47.22
2022-10-10T21:34:47.494Z,41.50
2022-10-10T21:39:49.816Z,35.53
2022-10-10T21:44:52.160Z,26.45
2022-10-10T21:49:54.434Z,20.75
2022-10-10T21:54:56.741Z,16.45
2022-10-10T21:59:58.972Z,11.65
2022-10-10T22:05:02.567Z,9.65
2022-10-10T22:15:09.172Z,12.35
2022-10-10T22:20:12.401Z,11.30
2022-10-10T22:25:18.152Z,9.70
2022-10-10T22:30:20.468Z,9.05
2022-10-10T22:35:22.685Z,9.13
2022-10-10T22:40:26.197Z,8.57
2022-10-10T22:45:29.450Z,8.63
2022-10-10T22:55:34.570Z,10.73
2022-10-10T23:00:37.040Z,10.07
2022-10-10T23:05:39.345Z,8.55
2022-10-10T23:10:41.732Z,9.25
2022-10-10T23:15:44.033Z,7.35
2022-10-10T23:20:47.646Z,7.75
2022-10-10T23:25:51.149Z,7.80
2022-10-10T23:30:53.477Z,8.38
2022-10-10T23:35:59.941Z,7.50
2022-10-10T23:41:02.432Z,6.38
2022-10-10T23:46:05.302Z,6.78
2022-10-10T23:51:07.951Z,6.70
2022-10-10T23:56:12.082Z,6.60
